sensor_id;sensor_type;location;lat;lon;timestamp;temperature;humidity
4699;DHT22;33708;49.466;11.176;2023-03-02T00:01:39;1.60;1.00
4699;DHT22;33708;49.466;11.176;2023-03-02T00:04:08;1.70;1.00
4699;DHT22;33708;49.466;11.176;2023-03-02T00:06:35;1.60;1.00
4699;DHT22;33708;49.466;11.176;2023-03-02T00:09:02;1.60;1.00
4699;DHT22;33708;49.466;11.176;2023-03-02T00:11:30;1.60;1.00
4699;DHT22;33708;49.466;11.176;2023-03-02T00:13:56;1.60;1.00
4699;DHT22;33708;49.466;11.176;2023-03-02T00:16:22;1.50;1.00
4699;DHT22;33708;49.466;11.176;2023-03-02T00:18:48;1.50;1.00
4699;DHT22;33708;49.466;11.176;2023-03-02T00:21:14;1.50;1.00
4699;DHT22;33708;49.466;11.176;2023-03-02T00:23:39;2.30;1.00
4699;DHT22;33708;49.466;11.176;2023-03-02T00:26:05;1.40;1.00
4699;DHT22;33708;49.466;11.176;2023-03-02T00:28:32;1.40;1.00
4699;DHT22;33708;49.466;11.176;2023-03-02T00:30:58;1.40;1.00
4699;DHT22;33708;49.466;11.176;2023-03-02T00:33:23;1.30;1.00
4699;DHT22;33708;49.466;11.176;2023-03-02T00:35:49;1.50;1.00
4699;DHT22;33708;49.466;11.176;2023-03-02T00:38:15;1.50;1.00
4699;DHT22;33708;49.466;11.176;2023-03-02T00:40:47;1.50;1.00
4699;DHT22;33708;49.466;11.176;2023-03-02T00:43:14;1.50;1.00
4699;DHT22;33708;49.466;11.176;2023-03-02T00:45:40;1.60;1.00
4699;DHT22;33708;49.466;11.176;2023-03-02T00:48:06;1.60;1.00
4699;DHT22;33708;49.466;11.176;2023-03-02T00:50:32;1.50;1.00
4699;DHT22;33708;49.466;11.176;2023-03-02T00:52:57;1.50;1.00
4699;DHT22;33708;49.466;11.176;2023-03-02T00:55:23;1.60;1.00
4699;DHT22;33708;49.466;11.176;2023-03-02T00:57:52;1.50;1.00
4699;DHT22;33708;49.466;11.176;2023-03-02T01:00:22;1.50;1.00
4699;DHT22;33708;49.466;11.176;2023-03-02T01:02:49;1.60;1.00
4699;DHT22;33708;49.466;11.176;2023-03-02T01:05:16;1.50;1.00
4699;DHT22;33708;49.466;11.176;2023-03-02T01:07:41;1.60;1.00
4699;DHT22;33708;49.466;11.176;2023-03-02T01:10:08;1.50;1.00
4699;DHT22;33708;49.466;11.176;2023-03-02T01:12:34;1.50;1.00
4699;DHT22;33708;49.466;11.176;2023-03-02T01:15:00;1.40;1.00
4699;DHT22;33708;49.466;11.176;2023-03-02T01:17:25;1.40;1.00
4699;DHT22;33708;49.466;11.176;2023-03-02T01:19:52;1.30;1.00
4699;DHT22;33708;49.466;11.176;2023-03-02T01:22:18;1.30;1.00
4699;DHT22;33708;49.466;11.176;2023-03-02T01:24:44;1.30;1.00
4699;DHT22;33708;49.466;11.176;2023-03-02T01:27:10;1.30;1.00
4699;DHT22;33708;49.466;11.176;2023-03-02T01:29:36;1.50;1.00
4699;DHT22;33708;49.466;11.176;2023-03-02T01:32:02;1.30;1.00
4699;DHT22;33708;49.466;11.176;2023-03-02T01:34:28;1.20;1.00
4699;DHT22;33708;49.466;11.176;2023-03-02T01:36:54;1.30;1.00
4699;DHT22;33708;49.466;11.176;2023-03-02T01:39:19;1.60;1.00
4699;DHT22;33708;49.466;11.176;2023-03-02T01:41:48;1.20;1.00
4699;DHT22;33708;49.466;11.176;2023-03-02T01:44:47;1.20;1.00
4699;DHT22;33708;49.466;11.176;2023-03-02T01:47:32;1.30;1.00
4699;DHT22;33708;49.466;11.176;2023-03-02T01:52:32;1.40;1.00
4699;DHT22;33708;49.466;11.176;2023-03-02T01:55:01;1.40;1.00
4699;DHT22;33708;49.466;11.176;2023-03-02T01:57:30;1.40;1.00
4699;DHT22;33708;49.466;11.176;2023-03-02T02:00:00;1.50;1.00
4699;DHT22;33708;49.466;11.176;2023-03-02T02:02:33;1.50;1.00
4699;DHT22;33708;49.466;11.176;2023-03-02T02:04:59;1.40;1.00
4699;DHT22;33708;49.466;11.176;2023-03-02T02:07:24;1.30;1.00
4699;DHT22;33708;49.466;11.176;2023-03-02T02:09:52;1.40;1.00
4699;DHT22;33708;49.466;11.176;2023-03-02T02:12:21;1.40;1.00
4699;DHT22;33708;49.466;11.176;2023-03-02T02:14:47;1.30;1.00
4699;DHT22;33708;49.466;11.176;2023-03-02T02:17:15;1.30;1.00
4699;DHT22;33708;49.466;11.176;2023-03-02T02:20:19;1.40;1.00
4699;DHT22;33708;49.466;11.176;2023-03-02T02:28:22;1.10;1.00
4699;DHT22;33708;49.466;11.176;2023-03-02T02:30:50;1.00;1.00
4699;DHT22;33708;49.466;11.176;2023-03-02T02:33:22;1.20;1.00
4699;DHT22;33708;49.466;11.176;2023-03-02T02:35:48;1.20;1.00
4699;DHT22;33708;49.466;11.176;2023-03-02T02:38:18;1.10;1.00
4699;DHT22;33708;49.466;11.176;2023-03-02T02:40:48;1.10;1.00
4699;DHT22;33708;49.466;11.176;2023-03-02T02:43:18;1.00;1.00
4699;DHT22;33708;49.466;11.176;2023-03-02T02:45:45;1.10;1.00
4699;DHT22;33708;49.466;11.176;2023-03-02T02:48:20;1.00;1.00
4699;DHT22;33708;49.466;11.176;2023-03-02T02:50:48;1.30;1.00
4699;DHT22;33708;49.466;11.176;2023-03-02T02:53:25;1.40;1.00
4699;DHT22;33708;49.466;11.176;2023-03-02T02:55:53;1.30;1.00
4699;DHT22;33708;49.466;11.176;2023-03-02T03:01:03;1.40;1.00
4699;DHT22;33708;49.466;11.176;2023-03-02T03:03:33;1.40;1.00
4699;DHT22;33708;49.466;11.176;2023-03-02T03:06:02;1.50;1.00
4699;DHT22;33708;49.466;11.176;2023-03-02T03:11:11;1.50;1.00
4699;DHT22;33708;49.466;11.176;2023-03-02T03:13:38;1.50;1.00
4699;DHT22;33708;49.466;11.176;2023-03-02T03:16:07;1.50;1.00
4699;DHT22;33708;49.466;11.176;2023-03-02T03:18:34;1.40;1.00
4699;DHT22;33708;49.466;11.176;2023-03-02T03:20:59;1.60;1.00
4699;DHT22;33708;49.466;11.176;2023-03-02T03:23:25;1.40;1.00
4699;DHT22;33708;49.466;11.176;2023-03-02T03:25:51;1.40;1.00
4699;DHT22;33708;49.466;11.176;2023-03-02T03:28:16;1.60;1.00
4699;DHT22;33708;49.466;11.176;2023-03-02T03:30:43;1.50;1.00
4699;DHT22;33708;49.466;11.176;2023-03-02T03:33:09;1.70;1.00
4699;DHT22;33708;49.466;11.176;2023-03-02T03:35:36;1.30;1.00
4699;DHT22;33708;49.466;11.176;2023-03-02T03:38:03;1.40;1.00
4699;DHT22;33708;49.466;11.176;2023-03-02T03:40:29;1.30;1.00
4699;DHT22;33708;49.466;11.176;2023-03-02T03:43:02;1.40;1.00
4699;DHT22;33708;49.466;11.176;2023-03-02T03:45:27;1.40;1.00
4699;DHT22;33708;49.466;11.176;2023-03-02T03:47:54;1.40;1.00
4699;DHT22;33708;49.466;11.176;2023-03-02T03:50:20;1.30;1.00
4699;DHT22;33708;49.466;11.176;2023-03-02T03:52:46;1.40;1.00
4699;DHT22;33708;49.466;11.176;2023-03-02T03:55:12;1.30;1.00
4699;DHT22;33708;49.466;11.176;2023-03-02T03:57:38;1.40;1.00
4699;DHT22;33708;49.466;11.176;2023-03-02T04:00:05;1.30;1.00
4699;DHT22;33708;49.466;11.176;2023-03-02T04:02:32;1.20;1.00
4699;DHT22;33708;49.466;11.176;2023-03-02T04:04:58;1.10;1.00
4699;DHT22;33708;49.466;11.176;2023-03-02T04:07:37;1.10;1.00
4699;DHT22;33708;49.466;11.176;2023-03-02T04:10:05;1.10;1.00
4699;DHT22;33708;49.466;11.176;2023-03-02T04:12:33;1.20;1.00
4699;DHT22;33708;49.466;11.176;2023-03-02T04:15:00;1.20;1.00
4699;DHT22;33708;49.466;11.176;2023-03-02T04:17:26;1.20;1.00
4699;DHT22;33708;49.466;11.176;2023-03-02T04:19:53;1.30;1.00
4699;DHT22;33708;49.466;11.176;2023-03-02T04:22:19;1.40;1.00
4699;DHT22;33708;49.466;11.176;2023-03-02T04:24:46;1.20;1.00
4699;DHT22;33708;49.466;11.176;2023-03-02T04:27:12;1.20;1.00
4699;DHT22;33708;49.466;11.176;2023-03-02T04:29:38;1.20;1.00
4699;DHT22;33708;49.466;11.176;2023-03-02T04:32:05;1.20;1.00
4699;DHT22;33708;49.466;11.176;2023-03-02T04:34:31;1.30;1.00
4699;DHT22;33708;49.466;11.176;2023-03-02T04:36:57;1.30;1.00
4699;DHT22;33708;49.466;11.176;2023-03-02T04:39:23;1.30;1.00
4699;DHT22;33708;49.466;11.176;2023-03-02T04:41:49;1.40;1.00
4699;DHT22;33708;49.466;11.176;2023-03-02T04:44:15;1.40;1.00
4699;DHT22;33708;49.466;11.176;2023-03-02T04:46:41;1.40;1.00
4699;DHT22;33708;49.466;11.176;2023-03-02T04:49:07;1.40;1.00
4699;DHT22;33708;49.466;11.176;2023-03-02T04:51:36;1.30;1.00
4699;DHT22;33708;49.466;11.176;2023-03-02T04:54:05;1.30;1.00
4699;DHT22;33708;49.466;11.176;2023-03-02T04:56:32;1.40;1.00
4699;DHT22;33708;49.466;11.176;2023-03-02T04:58:58;1.30;1.00
4699;DHT22;33708;49.466;11.176;2023-03-02T05:01:24;1.30;1.00
4699;DHT22;33708;49.466;11.176;2023-03-02T05:03:50;1.30;1.00
4699;DHT22;33708;49.466;11.176;2023-03-02T05:06:16;1.30;1.00
4699;DHT22;33708;49.466;11.176;2023-03-02T05:08:42;1.20;1.00
4699;DHT22;33708;49.466;11.176;2023-03-02T05:11:11;1.20;1.00
4699;DHT22;33708;49.466;11.176;2023-03-02T05:13:53;1.20;1.00
4699;DHT22;33708;49.466;11.176;2023-03-02T05:16:20;1.20;1.00
4699;DHT22;33708;49.466;11.176;2023-03-02T05:18:46;1.10;1.00
4699;DHT22;33708;49.466;11.176;2023-03-02T05:21:12;1.20;1.00
4699;DHT22;33708;49.466;11.176;2023-03-02T05:23:39;1.30;1.00
4699;DHT22;33708;49.466;11.176;2023-03-02T05:26:05;1.30;1.00
4699;DHT22;33708;49.466;11.176;2023-03-02T05:28:31;1.30;1.00
4699;DHT22;33708;49.466;11.176;2023-03-02T05:30:57;1.30;1.00
4699;DHT22;33708;49.466;11.176;2023-03-02T05:33:23;1.30;1.00
4699;DHT22;33708;49.466;11.176;2023-03-02T05:35:49;1.40;1.00
4699;DHT22;33708;49.466;11.176;2023-03-02T05:38:15;1.30;1.00
4699;DHT22;33708;49.466;11.176;2023-03-02T05:40:41;1.20;1.00
4699;DHT22;33708;49.466;11.176;2023-03-02T05:43:07;1.20;1.00
4699;DHT22;33708;49.466;11.176;2023-03-02T05:45:36;1.30;1.00
4699;DHT22;33708;49.466;11.176;2023-03-02T05:48:02;1.20;1.00
4699;DHT22;33708;49.466;11.176;2023-03-02T05:50:29;1.20;1.00
4699;DHT22;33708;49.466;11.176;2023-03-02T05:52:55;1.20;1.00
4699;DHT22;33708;49.466;11.176;2023-03-02T05:55:20;1.20;1.00
4699;DHT22;33708;49.466;11.176;2023-03-02T05:57:46;1.30;1.00
4699;DHT22;33708;49.466;11.176;2023-03-02T06:00:15;1.30;1.00
4699;DHT22;33708;49.466;11.176;2023-03-02T06:02:41;1.30;1.00
4699;DHT22;33708;49.466;11.176;2023-03-02T06:05:09;1.40;1.00
4699;DHT22;33708;49.466;11.176;2023-03-02T06:07:35;1.50;1.00
4699;DHT22;33708;49.466;11.176;2023-03-02T06:10:01;1.50;1.00
4699;DHT22;33708;49.466;11.176;2023-03-02T06:12:27;1.50;1.00
4699;DHT22;33708;49.466;11.176;2023-03-02T06:14:52;1.50;1.00
4699;DHT22;33708;49.466;11.176;2023-03-02T06:17:18;1.30;1.00
4699;DHT22;33708;49.466;11.176;2023-03-02T06:19:44;1.70;1.00
4699;DHT22;33708;49.466;11.176;2023-03-02T06:22:09;1.70;1.00
4699;DHT22;33708;49.466;11.176;2023-03-02T06:24:35;1.90;1.00
4699;DHT22;33708;49.466;11.176;2023-03-02T06:27:00;2.50;1.00
4699;DHT22;33708;49.466;11.176;2023-03-02T06:29:26;2.90;1.00
4699;DHT22;33708;49.466;11.176;2023-03-02T06:31:52;3.00;1.00
4699;DHT22;33708;49.466;11.176;2023-03-02T06:34:17;3.00;1.00
4699;DHT22;33708;49.466;11.176;2023-03-02T06:36:43;3.10;1.00
4699;DHT22;33708;49.466;11.176;2023-03-02T06:39:10;3.30;1.00
4699;DHT22;33708;49.466;11.176;2023-03-02T06:41:46;3.60;1.00
4699;DHT22;33708;49.466;11.176;2023-03-02T06:44:12;4.00;1.00
4699;DHT22;33708;49.466;11.176;2023-03-02T06:46:38;4.20;1.00
4699;DHT22;33708;49.466;11.176;2023-03-02T06:49:05;4.60;1.00
4699;DHT22;33708;49.466;11.176;2023-03-02T06:51:31;5.50;1.00
4699;DHT22;33708;49.466;11.176;2023-03-02T06:53:56;5.90;1.00
4699;DHT22;33708;49.466;11.176;2023-03-02T06:56:22;6.50;1.00
4699;DHT22;33708;49.466;11.176;2023-03-02T06:58:47;6.10;1.00
4699;DHT22;33708;49.466;11.176;2023-03-02T07:01:13;6.10;1.00
4699;DHT22;33708;49.466;11.176;2023-03-02T07:03:39;6.50;1.00
4699;DHT22;33708;49.466;11.176;2023-03-02T07:06:05;6.70;1.00
4699;DHT22;33708;49.466;11.176;2023-03-02T07:08:31;7.10;1.00
4699;DHT22;33708;49.466;11.176;2023-03-02T07:10:56;8.30;1.00
4699;DHT22;33708;49.466;11.176;2023-03-02T07:13:22;7.90;1.00
4699;DHT22;33708;49.466;11.176;2023-03-02T07:15:48;7.60;1.00
4699;DHT22;33708;49.466;11.176;2023-03-02T07:18:13;8.80;1.00
4699;DHT22;33708;49.466;11.176;2023-03-02T07:20:39;8.30;1.00
4699;DHT22;33708;49.466;11.176;2023-03-02T07:23:05;7.40;1.00
4699;DHT22;33708;49.466;11.176;2023-03-02T07:25:31;7.80;1.00
4699;DHT22;33708;49.466;11.176;2023-03-02T07:27:57;9.20;1.00
4699;DHT22;33708;49.466;11.176;2023-03-02T07:30:24;9.40;1.00
4699;DHT22;33708;49.466;11.176;2023-03-02T07:32:50;9.10;1.00
4699;DHT22;33708;49.466;11.176;2023-03-02T07:35:16;8.90;1.00
4699;DHT22;33708;49.466;11.176;2023-03-02T07:37:43;8.90;1.00
4699;DHT22;33708;49.466;11.176;2023-03-02T07:40:10;9.30;1.00
4699;DHT22;33708;49.466;11.176;2023-03-02T07:42:37;9.50;1.00
4699;DHT22;33708;49.466;11.176;2023-03-02T07:45:04;10.20;1.00
4699;DHT22;33708;49.466;11.176;2023-03-02T07:47:30;10.40;1.00
4699;DHT22;33708;49.466;11.176;2023-03-02T07:49:56;10.50;1.00
4699;DHT22;33708;49.466;11.176;2023-03-02T07:52:22;9.10;1.00
4699;DHT22;33708;49.466;11.176;2023-03-02T07:54:48;9.80;1.00
4699;DHT22;33708;49.466;11.176;2023-03-02T07:57:13;10.00;1.00
4699;DHT22;33708;49.466;11.176;2023-03-02T07:59:41;10.00;1.00
4699;DHT22;33708;49.466;11.176;2023-03-02T08:02:11;11.30;1.00
4699;DHT22;33708;49.466;11.176;2023-03-02T08:04:38;12.00;1.00
4699;DHT22;33708;49.466;11.176;2023-03-02T08:07:03;11.00;1.00
4699;DHT22;33708;49.466;11.176;2023-03-02T08:09:29;11.50;1.00
4699;DHT22;33708;49.466;11.176;2023-03-02T08:11:55;11.60;1.00
4699;DHT22;33708;49.466;11.176;2023-03-02T08:14:20;12.20;1.00
4699;DHT22;33708;49.466;11.176;2023-03-02T08:16:46;12.60;1.00
4699;DHT22;33708;49.466;11.176;2023-03-02T08:19:12;13.60;49.70
4699;DHT22;33708;49.466;11.176;2023-03-02T08:21:37;13.50;1.00
4699;DHT22;33708;49.466;11.176;2023-03-02T08:24:03;12.40;1.00
4699;DHT22;33708;49.466;11.176;2023-03-02T08:26:29;12.00;1.00
4699;DHT22;33708;49.466;11.176;2023-03-02T08:28:55;11.20;1.00
4699;DHT22;33708;49.466;11.176;2023-03-02T08:31:21;11.80;1.00
4699;DHT22;33708;49.466;11.176;2023-03-02T08:33:46;12.20;1.00
4699;DHT22;33708;49.466;11.176;2023-03-02T08:36:17;11.80;1.00
4699;DHT22;33708;49.466;11.176;2023-03-02T08:38:43;13.20;1.00
4699;DHT22;33708;49.466;11.176;2023-03-02T08:41:15;12.10;1.00
4699;DHT22;33708;49.466;11.176;2023-03-02T08:43:41;12.30;1.00
4699;DHT22;33708;49.466;11.176;2023-03-02T08:46:08;11.90;1.00
4699;DHT22;33708;49.466;11.176;2023-03-02T08:48:34;11.60;1.00
4699;DHT22;33708;49.466;11.176;2023-03-02T08:51:08;11.10;1.00
4699;DHT22;33708;49.466;11.176;2023-03-02T08:53:37;12.00;1.00
4699;DHT22;33708;49.466;11.176;2023-03-02T08:56:04;11.70;1.00
4699;DHT22;33708;49.466;11.176;2023-03-02T08:58:32;11.60;1.00
4699;DHT22;33708;49.466;11.176;2023-03-02T09:00:58;12.20;1.00
4699;DHT22;33708;49.466;11.176;2023-03-02T09:03:24;12.30;1.00
4699;DHT22;33708;49.466;11.176;2023-03-02T09:05:49;11.30;1.00
4699;DHT22;33708;49.466;11.176;2023-03-02T09:08:15;10.70;1.00
4699;DHT22;33708;49.466;11.176;2023-03-02T09:10:41;9.90;1.00
4699;DHT22;33708;49.466;11.176;2023-03-02T09:13:07;11.30;1.00
4699;DHT22;33708;49.466;11.176;2023-03-02T09:15:32;12.10;1.00
4699;DHT22;33708;49.466;11.176;2023-03-02T09:17:58;11.50;1.00
4699;DHT22;33708;49.466;11.176;2023-03-02T09:20:24;13.10;1.00
4699;DHT22;33708;49.466;11.176;2023-03-02T09:22:50;11.60;1.00
4699;DHT22;33708;49.466;11.176;2023-03-02T09:25:18;10.90;1.00
4699;DHT22;33708;49.466;11.176;2023-03-02T09:27:45;11.50;1.00
4699;DHT22;33708;49.466;11.176;2023-03-02T09:30:12;10.20;1.00
4699;DHT22;33708;49.466;11.176;2023-03-02T09:32:37;11.60;1.00
4699;DHT22;33708;49.466;11.176;2023-03-02T09:35:03;10.80;1.00
4699;DHT22;33708;49.466;11.176;2023-03-02T09:37:29;10.90;1.00
4699;DHT22;33708;49.466;11.176;2023-03-02T09:39:55;10.10;1.00
4699;DHT22;33708;49.466;11.176;2023-03-02T09:50:09;7.60;1.00
4699;DHT22;33708;49.466;11.176;2023-03-02T09:52:42;7.70;1.00
4699;DHT22;33708;49.466;11.176;2023-03-02T09:55:15;7.40;1.00
4699;DHT22;33708;49.466;11.176;2023-03-02T09:57:43;7.50;1.00
4699;DHT22;33708;49.466;11.176;2023-03-02T10:02:47;7.80;1.00
4699;DHT22;33708;49.466;11.176;2023-03-02T10:05:20;7.70;1.00
4699;DHT22;33708;49.466;11.176;2023-03-02T10:07:47;7.80;1.00
4699;DHT22;33708;49.466;11.176;2023-03-02T10:13:07;8.20;1.00
4699;DHT22;33708;49.466;11.176;2023-03-02T10:15:47;8.10;1.00
4699;DHT22;33708;49.466;11.176;2023-03-02T10:18:21;8.00;1.00
4699;DHT22;33708;49.466;11.176;2023-03-02T10:21:01;8.20;1.00
4699;DHT22;33708;49.466;11.176;2023-03-02T10:23:45;7.90;1.00
4699;DHT22;33708;49.466;11.176;2023-03-02T10:31:46;8.40;1.00
4699;DHT22;33708;49.466;11.176;2023-03-02T10:34:17;8.40;1.00
4699;DHT22;33708;49.466;11.176;2023-03-02T10:36:43;8.40;1.00
4699;DHT22;33708;49.466;11.176;2023-03-02T10:39:13;8.60;1.00
4699;DHT22;33708;49.466;11.176;2023-03-02T10:41:46;8.50;1.00
4699;DHT22;33708;49.466;11.176;2023-03-02T10:44:51;8.70;1.00
4699;DHT22;33708;49.466;11.176;2023-03-02T10:47:27;8.90;1.00
4699;DHT22;33708;49.466;11.176;2023-03-02T10:49:56;8.90;1.00
4699;DHT22;33708;49.466;11.176;2023-03-02T10:52:26;8.90;1.00
4699;DHT22;33708;49.466;11.176;2023-03-02T10:55:13;9.00;1.00
4699;DHT22;33708;49.466;11.176;2023-03-02T10:57:41;9.10;1.00
4699;DHT22;33708;49.466;11.176;2023-03-02T11:00:20;9.30;1.00
4699;DHT22;33708;49.466;11.176;2023-03-02T11:02:59;9.30;1.00
4699;DHT22;33708;49.466;11.176;2023-03-02T11:05:35;9.40;1.00
4699;DHT22;33708;49.466;11.176;2023-03-02T11:08:09;9.40;1.00
4699;DHT22;33708;49.466;11.176;2023-03-02T11:10:50;9.50;1.00
4699;DHT22;33708;49.466;11.176;2023-03-02T11:13:21;9.70;1.00
4699;DHT22;33708;49.466;11.176;2023-03-02T11:15:54;10.00;1.00
4699;DHT22;33708;49.466;11.176;2023-03-02T11:18:42;10.00;1.00
4699;DHT22;33708;49.466;11.176;2023-03-02T11:21:33;10.30;1.00
4699;DHT22;33708;49.466;11.176;2023-03-02T11:24:20;10.20;1.00
4699;DHT22;33708;49.466;11.176;2023-03-02T11:26:51;10.40;1.00
4699;DHT22;33708;49.466;11.176;2023-03-02T11:29:39;10.50;1.00
4699;DHT22;33708;49.466;11.176;2023-03-02T11:32:14;10.70;1.00
4699;DHT22;33708;49.466;11.176;2023-03-02T11:34:57;10.60;1.00
4699;DHT22;33708;49.466;11.176;2023-03-02T11:37:47;10.50;1.00
4699;DHT22;33708;49.466;11.176;2023-03-02T11:40:46;10.60;1.00
4699;DHT22;33708;49.466;11.176;2023-03-02T11:43:12;10.50;1.00
4699;DHT22;33708;49.466;11.176;2023-03-02T11:45:45;10.70;1.00
4699;DHT22;33708;49.466;11.176;2023-03-02T11:51:00;10.90;1.00
4699;DHT22;33708;49.466;11.176;2023-03-02T11:53:41;11.10;1.00
4699;DHT22;33708;49.466;11.176;2023-03-02T11:56:08;11.00;1.00
4699;DHT22;33708;49.466;11.176;2023-03-02T11:58:34;10.90;1.00
4699;DHT22;33708;49.466;11.176;2023-03-02T12:01:02;11.10;1.00
4699;DHT22;33708;49.466;11.176;2023-03-02T12:08:41;11.00;1.00
4699;DHT22;33708;49.466;11.176;2023-03-02T12:11:26;11.10;1.00
4699;DHT22;33708;49.466;11.176;2023-03-02T12:14:22;11.20;1.00
4699;DHT22;33708;49.466;11.176;2023-03-02T12:16:49;11.10;1.00
4699;DHT22;33708;49.466;11.176;2023-03-02T12:21:43;11.50;1.00
4699;DHT22;33708;49.466;11.176;2023-03-02T12:24:30;11.60;1.00
4699;DHT22;33708;49.466;11.176;2023-03-02T12:29:56;11.20;1.00
4699;DHT22;33708;49.466;11.176;2023-03-02T12:32:24;11.50;1.00
4699;DHT22;33708;49.466;11.176;2023-03-02T12:34:58;11.00;1.00
4699;DHT22;33708;49.466;11.176;2023-03-02T12:43:07;11.20;1.00
4699;DHT22;33708;49.466;11.176;2023-03-02T12:48:30;11.20;1.00
4699;DHT22;33708;49.466;11.176;2023-03-02T12:51:01;11.30;1.00
4699;DHT22;33708;49.466;11.176;2023-03-02T12:53:28;11.20;1.00
4699;DHT22;33708;49.466;11.176;2023-03-02T12:55:54;11.40;1.00
4699;DHT22;33708;49.466;11.176;2023-03-02T12:58:25;11.30;1.00
4699;DHT22;33708;49.466;11.176;2023-03-02T13:00:57;11.40;1.00
4699;DHT22;33708;49.466;11.176;2023-03-02T13:03:25;11.40;1.00
4699;DHT22;33708;49.466;11.176;2023-03-02T13:06:02;11.20;1.00
4699;DHT22;33708;49.466;11.176;2023-03-02T13:08:29;11.30;1.00
4699;DHT22;33708;49.466;11.176;2023-03-02T13:10:57;11.40;1.00
4699;DHT22;33708;49.466;11.176;2023-03-02T13:13:31;11.50;1.00
4699;DHT22;33708;49.466;11.176;2023-03-02T13:16:17;11.70;1.00
4699;DHT22;33708;49.466;11.176;2023-03-02T13:18:44;11.70;1.00
4699;DHT22;33708;49.466;11.176;2023-03-02T13:21:12;11.70;1.00
4699;DHT22;33708;49.466;11.176;2023-03-02T13:23:46;11.60;1.00
4699;DHT22;33708;49.466;11.176;2023-03-02T13:26:35;11.90;1.00
4699;DHT22;33708;49.466;11.176;2023-03-02T13:31:29;12.00;1.00
4699;DHT22;33708;49.466;11.176;2023-03-02T13:33:56;12.00;1.00
4699;DHT22;33708;49.466;11.176;2023-03-02T13:36:40;12.20;1.00
4699;DHT22;33708;49.466;11.176;2023-03-02T13:39:14;12.40;1.00
4699;DHT22;33708;49.466;11.176;2023-03-02T13:41:54;12.00;1.00
4699;DHT22;33708;49.466;11.176;2023-03-02T13:44:26;12.10;1.00
4699;DHT22;33708;49.466;11.176;2023-03-02T13:46:52;12.20;1.00
4699;DHT22;33708;49.466;11.176;2023-03-02T13:49:29;12.10;1.00
4699;DHT22;33708;49.466;11.176;2023-03-02T13:54:44;12.30;1.00
4699;DHT22;33708;49.466;11.176;2023-03-02T13:57:27;12.30;1.00
4699;DHT22;33708;49.466;11.176;2023-03-02T13:59:54;12.30;1.00
4699;DHT22;33708;49.466;11.176;2023-03-02T14:02:24;12.40;1.00
4699;DHT22;33708;49.466;11.176;2023-03-02T14:04:50;12.10;1.00
4699;DHT22;33708;49.466;11.176;2023-03-02T14:07:16;12.00;1.00
4699;DHT22;33708;49.466;11.176;2023-03-02T14:09:42;12.30;1.00
4699;DHT22;33708;49.466;11.176;2023-03-02T14:12:12;12.30;1.00
4699;DHT22;33708;49.466;11.176;2023-03-02T14:14:43;12.20;1.00
4699;DHT22;33708;49.466;11.176;2023-03-02T14:17:14;12.20;1.00
4699;DHT22;33708;49.466;11.176;2023-03-02T14:19:41;12.70;1.00
4699;DHT22;33708;49.466;11.176;2023-03-02T14:22:09;12.40;1.00
4699;DHT22;33708;49.466;11.176;2023-03-02T14:24:35;12.30;1.00
4699;DHT22;33708;49.466;11.176;2023-03-02T14:27:01;12.30;1.00
4699;DHT22;33708;49.466;11.176;2023-03-02T14:29:28;12.20;1.00
4699;DHT22;33708;49.466;11.176;2023-03-02T14:31:57;12.20;1.00
4699;DHT22;33708;49.466;11.176;2023-03-02T14:34:24;12.00;1.00
4699;DHT22;33708;49.466;11.176;2023-03-02T14:36:52;12.10;1.00
4699;DHT22;33708;49.466;11.176;2023-03-02T14:41:49;12.10;1.00
4699;DHT22;33708;49.466;11.176;2023-03-02T14:44:16;12.40;1.00
4699;DHT22;33708;49.466;11.176;2023-03-02T14:46:42;11.90;1.00
4699;DHT22;33708;49.466;11.176;2023-03-02T14:49:08;12.00;1.00
4699;DHT22;33708;49.466;11.176;2023-03-02T14:51:35;12.10;1.00
4699;DHT22;33708;49.466;11.176;2023-03-02T14:54:06;11.90;1.00
4699;DHT22;33708;49.466;11.176;2023-03-02T14:56:32;12.00;1.00
4699;DHT22;33708;49.466;11.176;2023-03-02T14:58:59;11.90;1.00
4699;DHT22;33708;49.466;11.176;2023-03-02T15:01:24;11.90;1.00
4699;DHT22;33708;49.466;11.176;2023-03-02T15:03:50;11.80;1.00
4699;DHT22;33708;49.466;11.176;2023-03-02T15:06:27;11.90;1.00
4699;DHT22;33708;49.466;11.176;2023-03-02T15:08:55;11.80;1.00
4699;DHT22;33708;49.466;11.176;2023-03-02T15:11:21;11.80;1.00
4699;DHT22;33708;49.466;11.176;2023-03-02T15:13:47;11.60;1.00
4699;DHT22;33708;49.466;11.176;2023-03-02T15:16:13;11.60;1.00
4699;DHT22;33708;49.466;11.176;2023-03-02T15:18:39;11.90;1.00
4699;DHT22;33708;49.466;11.176;2023-03-02T15:21:05;11.60;1.00
4699;DHT22;33708;49.466;11.176;2023-03-02T15:23:31;11.70;1.00
4699;DHT22;33708;49.466;11.176;2023-03-02T15:26:01;11.60;1.00
4699;DHT22;33708;49.466;11.176;2023-03-02T15:28:27;11.70;1.00
4699;DHT22;33708;49.466;11.176;2023-03-02T15:30:53;11.60;1.00
4699;DHT22;33708;49.466;11.176;2023-03-02T15:33:20;11.50;1.00
4699;DHT22;33708;49.466;11.176;2023-03-02T15:35:52;11.60;1.00
4699;DHT22;33708;49.466;11.176;2023-03-02T15:38:19;11.40;1.00
4699;DHT22;33708;49.466;11.176;2023-03-02T15:40:45;11.40;1.00
4699;DHT22;33708;49.466;11.176;2023-03-02T15:43:10;11.30;1.00
4699;DHT22;33708;49.466;11.176;2023-03-02T15:45:36;11.30;1.00
4699;DHT22;33708;49.466;11.176;2023-03-02T15:48:03;11.20;1.00
4699;DHT22;33708;49.466;11.176;2023-03-02T15:50:28;11.10;1.00
4699;DHT22;33708;49.466;11.176;2023-03-02T15:52:54;11.00;1.00
4699;DHT22;33708;49.466;11.176;2023-03-02T15:55:22;11.00;1.00
4699;DHT22;33708;49.466;11.176;2023-03-02T15:57:47;10.90;1.00
4699;DHT22;33708;49.466;11.176;2023-03-02T16:00:13;10.80;1.00
4699;DHT22;33708;49.466;11.176;2023-03-02T16:02:39;10.70;1.00
4699;DHT22;33708;49.466;11.176;2023-03-02T16:05:05;10.70;1.00
4699;DHT22;33708;49.466;11.176;2023-03-02T16:07:31;10.60;1.00
4699;DHT22;33708;49.466;11.176;2023-03-02T16:09:57;10.60;1.00
4699;DHT22;33708;49.466;11.176;2023-03-02T16:12:26;10.50;1.00
4699;DHT22;33708;49.466;11.176;2023-03-02T16:14:51;10.40;1.00
4699;DHT22;33708;49.466;11.176;2023-03-02T16:17:17;10.30;1.00
4699;DHT22;33708;49.466;11.176;2023-03-02T16:19:43;10.20;1.00
4699;DHT22;33708;49.466;11.176;2023-03-02T16:22:09;10.10;1.00
4699;DHT22;33708;49.466;11.176;2023-03-02T16:24:36;10.00;1.00
4699;DHT22;33708;49.466;11.176;2023-03-02T16:27:01;10.00;1.00
4699;DHT22;33708;49.466;11.176;2023-03-02T16:29:27;9.90;1.00
4699;DHT22;33708;49.466;11.176;2023-03-02T16:31:53;9.80;1.00
4699;DHT22;33708;49.466;11.176;2023-03-02T16:34:18;9.80;1.00
4699;DHT22;33708;49.466;11.176;2023-03-02T16:36:44;9.80;1.00
4699;DHT22;33708;49.466;11.176;2023-03-02T16:39:10;9.80;1.00
4699;DHT22;33708;49.466;11.176;2023-03-02T16:41:38;9.50;1.00
4699;DHT22;33708;49.466;11.176;2023-03-02T16:44:04;9.40;1.00
4699;DHT22;33708;49.466;11.176;2023-03-02T16:46:32;9.30;1.00
4699;DHT22;33708;49.466;11.176;2023-03-02T16:49:02;9.30;1.00
4699;DHT22;33708;49.466;11.176;2023-03-02T16:51:28;9.10;1.00
4699;DHT22;33708;49.466;11.176;2023-03-02T16:53:53;9.20;1.00
4699;DHT22;33708;49.466;11.176;2023-03-02T16:56:19;9.00;1.00
4699;DHT22;33708;49.466;11.176;2023-03-02T16:58:45;9.00;1.00
4699;DHT22;33708;49.466;11.176;2023-03-02T17:01:14;8.80;1.00
4699;DHT22;33708;49.466;11.176;2023-03-02T17:03:41;8.80;1.00
4699;DHT22;33708;49.466;11.176;2023-03-02T17:06:09;8.80;1.00